x

South Bermuda - 300 Nm Sse Of Bermuda (41049) Wave Buoy

3:50am - Mon 31st Aug 2015 All times are UTC.

  • Sig Wave height 3.9ft
  • Swell Direction
  • Peak Period 10s
  • Average Period 7s
  • Wind
    4mph, 7mph gusts
  • Sea Temp 86°f
  • Air Temp 84°f
  • Sea Pressure 1020.8mb

More Historic Weather Station data

Upgrade to MSW Pro to gain access to the past 30 days of data for over 8000 Wavebouys and Weather Stations around the globe.

Join Pro

Comparision Forecast

View Surf forecast
   
Mon 08/31 3:50am 4ft 10s 7s 4 7 mph 1020.8mb 86f 84f
2:50am 4ft 11s 7s 4 7 mph 1020.8mb 86f 84f
1:50am 3.5ft 10s 7s 7 9 mph 1020.9mb 86f 84f
12:50am 4ft 11s 7s 7 9 mph 1020.6mb 86f 84f
Sun 08/30 11:50pm 4.5ft 11s 7s 7 9 mph 1020.4mb 86f 84f
10:50pm 4.5ft 9s 7s 7 9 mph 1020.1mb 86f 84f
9:50pm 4.5ft 10s 7s 7 9 mph 1020.2mb 86f 85f
8:50pm 4.5ft 10s 7s 9 11 mph 1020.1mb 86f 85f
7:50pm 4.5ft 10s 7s 9 11 mph 1020.2mb 87f 85f
6:50pm 5ft 10s 7s 9 11 mph 1020.4mb 87f 85f
5:50pm 5ft 10s 7s 9 11 mph 1020.6mb 86f 85f
4:50pm 4.5ft 10s 7s 11 13 mph 1020.6mb 86f 84f
3:50pm 4.5ft 10s 7s 11 13 mph 1021.1mb 86f 84f
2:50pm 5ft 10s 7s 9 13 mph 1021.6mb 86f 84f
1:50pm 5ft 10s 7s 11 13 mph 1021.3mb 86f 84f
12:50pm 4.5ft 8s 7s 11 13 mph 1020.6mb 86f 84f
11:50am 4.5ft 10s 6s 11 13 mph 1020.4mb 86f 84f
10:50am 4.5ft 9s 6s 13
mph
1020mb 86f 84f
9:50am 4.5ft 10s 7s 13 16 mph 1019.3mb 86f 84f
8:50am 4.5ft 10s 7s 13 16 mph 1018.9mb 86f 83f
7:50am 4.5ft 9s 6s 13 16 mph 1018.8mb 86f 83f
6:50am 4.5ft 11s 7s 11 13 mph 1019.3mb 86f 83f
5:50am 4.5ft 11s 6s 11 13 mph 1019.7mb 86f 84f
4:50am 4.5ft 11s 6s 13 16 mph 1019.9mb 86f 84f
3:50am 4.5ft 11s 7s 13 16 mph 1020.6mb 86f 84f
2:50am 4.5ft 10s 6s 13
mph
1020.7mb 86f 84f
1:50am 4.5ft 10s 6s 11 13 mph 1020.6mb 86f 84f
12:50am 4.5ft 11s 6s 13 16 mph 1020.6mb 86f 84f
Sat 08/29 11:50pm 4.5ft 9s 7s 11 13 mph 1020.3mb 86f 84f
10:50pm 5ft 10s 7s 11 16 mph 1019.9mb 86f 84f
9:50pm 5ft 8s 7s 13 16 mph 1019.8mb 86f 85f
8:50pm 5ft 11s 7s 13 16 mph 1019.9mb 86f 85f
7:50pm 5.5ft 10s 8s 11 13 mph 1020.2mb 87f 85f
6:50pm 6ft 11s 8s 13 16 mph 1020.3mb 87f 85f
5:50pm 5.5ft 10s 8s 11 13 mph 1021mb 87f 84f
4:50pm 5ft 11s 7s 11 13 mph 1021.6mb 86f 84f
3:50pm 5ft 8s 7s 11 13 mph 1021.9mb 86f 84f
2:50pm 6ft 9s 7s 9 11 mph 1021.9mb 86f 84f
1:50pm 5ft 8s 7s 11 13 mph 1021.6mb 86f 84f
12:50pm 6ft 11s 8s 11 13 mph 1021.1mb 86f 84f
11:50am 5ft 10s 7s 13 18 mph 1020.8mb 86f 83f
10:50am 5ft 10s 8s 11 13 mph 1020.6mb 86f 83f
9:50am 5ft 11s 8s 16 22 mph 1019.7mb 86f 83f
8:50am 5ft 9s 7s 9 13 mph 1019.9mb 86f 83f
7:50am 5ft 9s 7s 11 13 mph 1019.9mb 86f 83f
6:50am 5ft 11s 7s 11 13 mph 1020.4mb 86f 83f
5:50am 5ft 11s 7s 9 13 mph 1020.6mb 86f 84f
4:50am 5ft 10s 8s 11 13 mph 1021.1mb 86f 84f
3:50am 5ft 11s 7s 11 13 mph 1021.5mb 86f 84f
2:50am 5ft 11s 8s 9 11 mph 1021.8mb 86f 84f
1:50am 5ft 11s 8s 11 13 mph 1021.6mb 86f 84f
12:50am 5ft 10s 7s 11 13 mph 1021.2mb 87f 84f
Fri 08/28 11:50pm 5ft 8s 8s 11 13 mph 1020.6mb 87f 85f
10:50pm 5ft 11s 8s 9 11 mph 1020.2mb 87f 85f
9:50pm 4.5ft 8s 8s 7 11 mph 1019.9mb 88f 85f
8:50pm 5ft 9s 7s 7 9 mph 1019.8mb 88f 85f
7:50pm 5ft 10s 8s 7 9 mph 1019.7mb 89f 85f
6:50pm 5ft 8s 7s 4 9 mph 1019.8mb 89f 85f
5:50pm 5ft 10s 8s 4 7 mph 1020.2mb 89f 85f
4:50pm 5ft 9s 8s 2 4 mph 1020.9mb 88f 85f
3:50pm 5ft 9s 8s 4 7 mph 1021.2mb 87f 84f
2:50pm 5ft 9s 8s 4
mph
1021.7mb 87f 85f
1:50pm 4.5ft 8s 7s 4 7 mph 1021.6mb 87f 84f
12:50pm 5ft 8s 8s 4 7 mph 1021.3mb 86f 84f
11:50am 5ft 10s 8s 2 4 mph 1020.8mb 86f 85f
10:50am 5ft 10s 8s  -  2 mph 1020.4mb 86f 84f
9:50am 5ft 10s 8s 2
mph
1019.9mb 86f 83f
8:50am 5.5ft 9s 8s 2
mph
1019.8mb 86f 83f
7:50am 5ft 10s 8s 2 4 mph 1019.6mb 86f 84f
6:50am 6ft 10s 8s 2 4 mph 1019.8mb 86f 83f
5:50am 6ft 10s 8s 4 7 mph 1019.9mb 86f 83f
4:50am 5.5ft 11s 8s 2
mph
1020.4mb 87f 84f
3:50am 6ft 10s 8s 2 4 mph 1020.6mb 87f 85f
2:50am 6ft 10s 8s 4
mph
1020.6mb 87f 85f
1:50am 6ft 11s 8s 2 4 mph 1020.4mb 87f 85f
12:50am 6ft 11s 8s 4 7 mph 1020.1mb 88f 85f
Thu 08/27 11:50pm 5ft 10s 8s 4 7 mph 1019.7mb 87f 85f
10:50pm 6ft 10s 8s 2 4 mph 1019.3mb 87f 85f
9:50pm 5.5ft 11s 8s 2
mph
1018.7mb 88f 85f
8:50pm 6ft 11s 8s 2
mph
1018.8mb 89f 86f
7:50pm 5.5ft 10s 8s 2 4 mph 1018.8mb 89f 85f
6:50pm 6ft 11s 8s 4 7 mph 1018.9mb 91f 85f
5:50pm 5ft 10s 8s 2 4 mph 1019.4mb 91f 85f
4:50pm 5ft 11s 8s  -  4 mph 1020mb 90f 85f
3:50pm 5.5ft 10s 8s 2 4 mph 1020.1mb 89f 85f
2:50pm 5ft 9s 8s 2 4 mph 1020.4mb 87f 84f
1:50pm 5ft 10s 8s 2 4 mph 1020.2mb 86f 84f
12:50pm 5ft 11s 8s 4
mph
1019.7mb 86f 84f
11:50am 4.5ft 9s 8s 4
mph
1019.3mb 86f 84f
10:50am 5ft 10s 8s 2
mph
1019.2mb 86f 84f
9:50am 5ft 9s 8s  -  mph 1018.6mb 86f 83f
8:50am 5ft 11s 8s  -  2 mph 1018.2mb 86f 83f
7:50am 5ft 11s 8s 2 4 mph 1018mb 86f 83f
6:50am 5ft 10s 8s 4
mph
1018.1mb 86f 84f
5:50am 5ft 9s 7s 4 7 mph 1018.3mb 86f 84f
4:50am 5ft 10s 8s 4 7 mph 1018.8mb 86f 84f